sensor_id;sensor_type;location;lat;lon;timestamp;pressure;altitude;pressure_sealevel;temperature;humidity
27623;BME280;15041;45.334;5.622;2022-07-22T00:00:42;99322.69;;;27.73;40.91
27623;BME280;15041;45.334;5.622;2022-07-22T00:03:10;99318.28;;;27.46;41.82
27623;BME280;15041;45.334;5.622;2022-07-22T00:05:37;99314.78;;;26.89;43.95
27623;BME280;15041;45.334;5.622;2022-07-22T00:08:04;99313.25;;;26.91;43.63
27623;BME280;15041;45.334;5.622;2022-07-22T00:10:33;99312.94;;;27.15;42.78
27623;BME280;15041;45.334;5.622;2022-07-22T00:13:00;99318.28;;;27.24;42.63
27623;BME280;15041;45.334;5.622;2022-07-22T00:15:27;99316.69;;;27.45;41.59
27623;BME280;15041;45.334;5.622;2022-07-22T00:17:54;99309.22;;;27.27;41.77
27623;BME280;15041;45.334;5.622;2022-07-22T00:20:22;99302.81;;;27.23;42.20
27623;BME280;15041;45.334;5.622;2022-07-22T00:22:49;99300.78;;;27.42;41.29
27623;BME280;15041;45.334;5.622;2022-07-22T00:25:16;99302.47;;;27.47;41.33
27623;BME280;15041;45.334;5.622;2022-07-22T00:27:45;99303.38;;;27.54;40.86
27623;BME280;15041;45.334;5.622;2022-07-22T00:30:12;99296.47;;;27.67;40.54
27623;BME280;15041;45.334;5.622;2022-07-22T00:32:52;99289.19;;;26.95;44.20
27623;BME280;15041;45.334;5.622;2022-07-22T00:35:21;99303.00;;;27.33;42.34
27623;BME280;15041;45.334;5.622;2022-07-22T00:37:48;99292.66;;;27.30;41.98
27623;BME280;15041;45.334;5.622;2022-07-22T00:40:15;99294.69;;;27.33;41.39
27623;BME280;15041;45.334;5.622;2022-07-22T00:42:44;99291.41;;;27.28;41.48
27623;BME280;15041;45.334;5.622;2022-07-22T00:45:12;99291.88;;;27.30;41.60
27623;BME280;15041;45.334;5.622;2022-07-22T00:47:39;99288.78;;;27.16;41.98
27623;BME280;15041;45.334;5.622;2022-07-22T00:50:08;99290.81;;;27.19;41.63
27623;BME280;15041;45.334;5.622;2022-07-22T00:52:36;99291.16;;;26.95;43.33
27623;BME280;15041;45.334;5.622;2022-07-22T00:55:04;99281.34;;;26.78;43.56
27623;BME280;15041;45.334;5.622;2022-07-22T00:57:32;99278.28;;;26.83;43.63
27623;BME280;15041;45.334;5.622;2022-07-22T01:00:01;99277.81;;;27.00;43.04
27623;BME280;15041;45.334;5.622;2022-07-22T01:02:28;99288.28;;;27.10;42.44
27623;BME280;15041;45.334;5.622;2022-07-22T01:04:55;99281.56;;;26.89;42.51
27623;BME280;15041;45.334;5.622;2022-07-22T01:07:22;99279.97;;;27.10;41.84
27623;BME280;15041;45.334;5.622;2022-07-22T01:09:50;99286.81;;;27.16;41.94
27623;BME280;15041;45.334;5.622;2022-07-22T01:12:17;99275.75;;;27.16;42.07
27623;BME280;15041;45.334;5.622;2022-07-22T01:14:44;99271.38;;;27.15;41.82
27623;BME280;15041;45.334;5.622;2022-07-22T01:17:13;99278.06;;;27.14;41.73
27623;BME280;15041;45.334;5.622;2022-07-22T01:19:40;99278.41;;;26.90;43.21
27623;BME280;15041;45.334;5.622;2022-07-22T01:22:09;99279.25;;;26.72;43.89
27623;BME280;15041;45.334;5.622;2022-07-22T01:24:36;99286.44;;;26.95;42.77
27623;BME280;15041;45.334;5.622;2022-07-22T01:27:04;99272.25;;;27.00;42.60
27623;BME280;15041;45.334;5.622;2022-07-22T01:29:31;99277.34;;;26.76;43.55
27623;BME280;15041;45.334;5.622;2022-07-22T01:31:58;99272.66;;;26.80;43.75
27623;BME280;15041;45.334;5.622;2022-07-22T01:34:25;99279.41;;;25.91;46.91
27623;BME280;15041;45.334;5.622;2022-07-22T01:36:53;99273.03;;;25.90;47.12
27623;BME280;15041;45.334;5.622;2022-07-22T01:39:21;99270.50;;;26.16;46.13
27623;BME280;15041;45.334;5.622;2022-07-22T01:41:49;99277.56;;;26.14;46.19
27623;BME280;15041;45.334;5.622;2022-07-22T01:44:16;99274.59;;;26.22;45.32
27623;BME280;15041;45.334;5.622;2022-07-22T01:46:43;99279.13;;;26.49;44.68
27623;BME280;15041;45.334;5.622;2022-07-22T01:49:11;99278.47;;;26.56;44.74
27623;BME280;15041;45.334;5.622;2022-07-22T01:51:39;99274.47;;;26.34;45.18
27623;BME280;15041;45.334;5.622;2022-07-22T01:54:07;99272.13;;;26.55;44.34
27623;BME280;15041;45.334;5.622;2022-07-22T01:56:35;99284.09;;;26.59;44.05
27623;BME280;15041;45.334;5.622;2022-07-22T01:59:03;99274.72;;;26.64;43.65
27623;BME280;15041;45.334;5.622;2022-07-22T02:01:30;99284.19;;;26.63;43.58
27623;BME280;15041;45.334;5.622;2022-07-22T02:04:00;99279.44;;;26.63;43.80
27623;BME280;15041;45.334;5.622;2022-07-22T02:06:28;99285.81;;;26.29;45.51
27623;BME280;15041;45.334;5.622;2022-07-22T02:08:56;99281.38;;;26.44;45.27
27623;BME280;15041;45.334;5.622;2022-07-22T02:11:39;99272.13;;;26.55;44.71
27623;BME280;15041;45.334;5.622;2022-07-22T02:14:07;99268.38;;;26.63;44.37
27623;BME280;15041;45.334;5.622;2022-07-22T02:16:34;99260.50;;;26.65;44.15
27623;BME280;15041;45.334;5.622;2022-07-22T02:19:05;99271.72;;;26.72;44.03
27623;BME280;15041;45.334;5.622;2022-07-22T02:21:32;99274.72;;;26.64;44.15
27623;BME280;15041;45.334;5.622;2022-07-22T02:23:59;99273.25;;;25.97;46.77
27623;BME280;15041;45.334;5.622;2022-07-22T02:26:27;99274.16;;;25.70;47.90
27623;BME280;15041;45.334;5.622;2022-07-22T02:28:55;99285.34;;;26.08;46.43
27623;BME280;15041;45.334;5.622;2022-07-22T02:31:23;99276.78;;;26.13;46.67
27623;BME280;15041;45.334;5.622;2022-07-22T02:33:50;99280.16;;;26.22;45.72
27623;BME280;15041;45.334;5.622;2022-07-22T02:36:17;99280.84;;;26.19;45.56
27623;BME280;15041;45.334;5.622;2022-07-22T02:38:45;99284.16;;;26.25;45.54
27623;BME280;15041;45.334;5.622;2022-07-22T02:41:12;99278.25;;;26.26;45.66
27623;BME280;15041;45.334;5.622;2022-07-22T02:43:47;99281.38;;;26.44;45.06
27623;BME280;15041;45.334;5.622;2022-07-22T02:46:16;99275.56;;;26.30;45.61
27623;BME280;15041;45.334;5.622;2022-07-22T02:48:43;99276.38;;;26.30;45.28
27623;BME280;15041;45.334;5.622;2022-07-22T02:51:14;99276.19;;;26.23;45.22
27623;BME280;15041;45.334;5.622;2022-07-22T02:53:42;99268.25;;;26.22;45.39
27623;BME280;15041;45.334;5.622;2022-07-22T02:56:09;99273.25;;;25.97;46.19
27623;BME280;15041;45.334;5.622;2022-07-22T02:58:36;99269.63;;;26.12;45.41
27623;BME280;15041;45.334;5.622;2022-07-22T03:01:03;99272.09;;;26.17;45.04
27623;BME280;15041;45.334;5.622;2022-07-22T03:03:40;99271.91;;;26.07;45.43
27623;BME280;15041;45.334;5.622;2022-07-22T03:06:08;99280.22;;;25.60;47.18
27623;BME280;15041;45.334;5.622;2022-07-22T03:08:44;99285.50;;;25.34;49.87
27623;BME280;15041;45.334;5.622;2022-07-22T03:11:12;99274.44;;;25.50;48.92
27623;BME280;15041;45.334;5.622;2022-07-22T03:13:40;99274.97;;;25.71;48.01
27623;BME280;15041;45.334;5.622;2022-07-22T03:16:08;99280.09;;;25.88;47.67
27623;BME280;15041;45.334;5.622;2022-07-22T03:18:36;99291.47;;;25.67;47.74
27623;BME280;15041;45.334;5.622;2022-07-22T03:21:05;99294.81;;;25.14;50.62
27623;BME280;15041;45.334;5.622;2022-07-22T03:23:32;99296.41;;;25.15;50.76
27623;BME280;15041;45.334;5.622;2022-07-22T03:25:59;99294.75;;;25.57;48.85
27623;BME280;15041;45.334;5.622;2022-07-22T03:28:26;99293.06;;;25.68;47.68
27623;BME280;15041;45.334;5.622;2022-07-22T03:30:54;99286.00;;;25.86;47.09
27623;BME280;15041;45.334;5.622;2022-07-22T03:33:21;99295.88;;;25.87;46.59
27623;BME280;15041;45.334;5.622;2022-07-22T03:35:49;99296.78;;;25.91;46.54
27623;BME280;15041;45.334;5.622;2022-07-22T03:38:17;99304.72;;;25.93;46.36
27623;BME280;15041;45.334;5.622;2022-07-22T03:40:46;99304.09;;;25.99;46.20
27623;BME280;15041;45.334;5.622;2022-07-22T03:43:13;99312.16;;;24.99;50.77
27623;BME280;15041;45.334;5.622;2022-07-22T03:45:40;99314.94;;;24.99;51.60
27623;BME280;15041;45.334;5.622;2022-07-22T03:48:09;99320.69;;;24.94;51.64
27623;BME280;15041;45.334;5.622;2022-07-22T03:50:38;99322.66;;;24.15;54.91
27623;BME280;15041;45.334;5.622;2022-07-22T03:53:05;99327.63;;;24.49;53.33
27623;BME280;15041;45.334;5.622;2022-07-22T03:55:38;99321.81;;;24.78;51.92
27623;BME280;15041;45.334;5.622;2022-07-22T03:58:06;99331.59;;;24.75;52.41
27623;BME280;15041;45.334;5.622;2022-07-22T04:00:33;99332.16;;;24.81;52.19
27623;BME280;15041;45.334;5.622;2022-07-22T04:03:04;99326.28;;;24.82;52.20
27623;BME280;15041;45.334;5.622;2022-07-22T04:06:03;99318.44;;;24.84;51.64
27623;BME280;15041;45.334;5.622;2022-07-22T04:08:40;99324.22;;;24.79;51.93
27623;BME280;15041;45.334;5.622;2022-07-22T04:11:09;99318.66;;;24.91;51.49
27623;BME280;15041;45.334;5.622;2022-07-22T04:13:36;99315.63;;;24.96;50.87
27623;BME280;15041;45.334;5.622;2022-07-22T04:16:04;99306.88;;;24.94;50.64
27623;BME280;15041;45.334;5.622;2022-07-22T04:18:32;99321.78;;;25.05;50.62
27623;BME280;15041;45.334;5.622;2022-07-22T04:21:00;99315.22;;;25.10;50.90
27623;BME280;15041;45.334;5.622;2022-07-22T04:23:27;99312.31;;;24.63;52.98
27623;BME280;15041;45.334;5.622;2022-07-22T04:26:06;99319.56;;;24.95;51.29
27623;BME280;15041;45.334;5.622;2022-07-22T04:28:35;99313.44;;;24.74;52.34
27623;BME280;15041;45.334;5.622;2022-07-22T04:31:04;99310.34;;;24.12;55.25
27623;BME280;15041;45.334;5.622;2022-07-22T04:33:32;99305.50;;;24.21;55.40
27623;BME280;15041;45.334;5.622;2022-07-22T04:36:00;99314.13;;;24.08;56.14
27623;BME280;15041;45.334;5.622;2022-07-22T04:38:27;99318.44;;;23.93;56.51
27623;BME280;15041;45.334;5.622;2022-07-22T04:40:59;99308.09;;;24.02;55.92
27623;BME280;15041;45.334;5.622;2022-07-22T04:43:27;99305.03;;;24.31;55.50
27623;BME280;15041;45.334;5.622;2022-07-22T04:45:56;99313.06;;;24.36;54.69
27623;BME280;15041;45.334;5.622;2022-07-22T04:48:27;99305.84;;;24.59;53.88
27623;BME280;15041;45.334;5.622;2022-07-22T04:50:58;99313.91;;;24.64;53.95
27623;BME280;15041;45.334;5.622;2022-07-22T04:53:25;99310.13;;;23.57;59.15
27623;BME280;15041;45.334;5.622;2022-07-22T04:55:52;99319.09;;;23.78;58.68
27623;BME280;15041;45.334;5.622;2022-07-22T04:58:19;99308.75;;;24.11;56.70
27623;BME280;15041;45.334;5.622;2022-07-22T05:00:47;99313.34;;;24.19;56.78
27623;BME280;15041;45.334;5.622;2022-07-22T05:03:16;99305.38;;;24.30;55.89
27623;BME280;15041;45.334;5.622;2022-07-22T05:05:44;99308.66;;;24.47;55.35
27623;BME280;15041;45.334;5.622;2022-07-22T05:08:13;99315.19;;;23.91;58.20
27623;BME280;15041;45.334;5.622;2022-07-22T05:10:40;99316.78;;;23.80;59.46
27623;BME280;15041;45.334;5.622;2022-07-22T05:13:07;99310.25;;;24.21;57.15
27623;BME280;15041;45.334;5.622;2022-07-22T05:15:35;99313.97;;;24.40;56.87
27623;BME280;15041;45.334;5.622;2022-07-22T05:18:02;99317.41;;;24.61;55.58
27623;BME280;15041;45.334;5.622;2022-07-22T05:20:33;99325.03;;;24.40;57.11
27623;BME280;15041;45.334;5.622;2022-07-22T05:23:01;99330.81;;;23.99;58.82
27623;BME280;15041;45.334;5.622;2022-07-22T05:25:31;99322.31;;;23.56;60.19
27623;BME280;15041;45.334;5.622;2022-07-22T05:27:58;99318.16;;;23.86;59.23
27623;BME280;15041;45.334;5.622;2022-07-22T05:30:30;99320.25;;;23.77;59.70
27623;BME280;15041;45.334;5.622;2022-07-22T05:32:58;99326.22;;;23.91;58.75
27623;BME280;15041;45.334;5.622;2022-07-22T05:36:03;99322.06;;;23.61;61.01
27623;BME280;15041;45.334;5.622;2022-07-22T05:38:36;99315.50;;;23.89;58.33
27623;BME280;15041;45.334;5.622;2022-07-22T05:41:04;99326.47;;;24.10;57.17
27623;BME280;15041;45.334;5.622;2022-07-22T05:43:32;99318.88;;;23.95;58.21
27623;BME280;15041;45.334;5.622;2022-07-22T05:46:00;99324.72;;;24.06;57.88
27623;BME280;15041;45.334;5.622;2022-07-22T05:48:27;99330.31;;;23.49;62.19
27623;BME280;15041;45.334;5.622;2022-07-22T05:50:55;99320.44;;;23.84;60.09
27623;BME280;15041;45.334;5.622;2022-07-22T05:53:23;99319.56;;;23.92;59.16
27623;BME280;15041;45.334;5.622;2022-07-22T05:55:51;99322.22;;;24.01;58.74
27623;BME280;15041;45.334;5.622;2022-07-22T05:58:18;99317.28;;;23.94;59.32
27623;BME280;15041;45.334;5.622;2022-07-22T06:00:45;99311.94;;;24.25;57.90
27623;BME280;15041;45.334;5.622;2022-07-22T06:03:12;99313.84;;;24.37;57.56
27623;BME280;15041;45.334;5.622;2022-07-22T06:05:39;99318.38;;;23.57;62.20
27623;BME280;15041;45.334;5.622;2022-07-22T06:08:09;99322.28;;;23.44;63.69
27623;BME280;15041;45.334;5.622;2022-07-22T06:10:47;99311.97;;;23.65;62.65
27623;BME280;15041;45.334;5.622;2022-07-22T06:13:15;99321.06;;;23.65;62.19
27623;BME280;15041;45.334;5.622;2022-07-22T06:15:43;99317.03;;;24.11;59.56
27623;BME280;15041;45.334;5.622;2022-07-22T06:18:12;99317.00;;;24.23;59.13
27623;BME280;15041;45.334;5.622;2022-07-22T06:20:39;99307.63;;;23.76;61.97
27623;BME280;15041;45.334;5.622;2022-07-22T06:23:07;99323.00;;;24.01;60.44
27623;BME280;15041;45.334;5.622;2022-07-22T06:25:35;99305.06;;;24.19;60.02
27623;BME280;15041;45.334;5.622;2022-07-22T06:28:04;99306.16;;;24.42;58.52
27623;BME280;15041;45.334;5.622;2022-07-22T06:30:31;99313.69;;;24.57;58.08
27623;BME280;15041;45.334;5.622;2022-07-22T06:32:59;99310.91;;;24.30;59.59
27623;BME280;15041;45.334;5.622;2022-07-22T06:35:26;99313.53;;;24.26;59.84
27623;BME280;15041;45.334;5.622;2022-07-22T06:37:54;99320.88;;;24.34;59.53
27623;BME280;15041;45.334;5.622;2022-07-22T06:40:22;99317.84;;;24.51;58.96
27623;BME280;15041;45.334;5.622;2022-07-22T06:43:04;99315.53;;;24.65;58.25
27623;BME280;15041;45.334;5.622;2022-07-22T06:45:54;99314.81;;;24.68;57.98
27623;BME280;15041;45.334;5.622;2022-07-22T06:48:31;99321.50;;;24.55;58.04
27623;BME280;15041;45.334;5.622;2022-07-22T06:50:58;99310.66;;;24.35;59.52
27623;BME280;15041;45.334;5.622;2022-07-22T06:53:26;99318.78;;;24.43;58.71
27623;BME280;15041;45.334;5.622;2022-07-22T06:55:53;99317.31;;;24.73;57.75
27623;BME280;15041;45.334;5.622;2022-07-22T06:58:22;99325.25;;;25.02;56.87
27623;BME280;15041;45.334;5.622;2022-07-22T07:00:49;99321.53;;;25.10;56.12
27623;BME280;15041;45.334;5.622;2022-07-22T07:03:35;99314.44;;;25.25;54.72
27623;BME280;15041;45.334;5.622;2022-07-22T07:06:07;99312.78;;;25.36;54.92
27623;BME280;15041;45.334;5.622;2022-07-22T07:08:56;99318.47;;;25.27;54.05
27623;BME280;15041;45.334;5.622;2022-07-22T07:11:24;99313.56;;;25.36;55.97
27623;BME280;15041;45.334;5.622;2022-07-22T07:13:53;99313.22;;;25.53;54.04
27623;BME280;15041;45.334;5.622;2022-07-22T07:16:20;99308.59;;;25.57;53.69
27623;BME280;15041;45.334;5.622;2022-07-22T07:18:47;99299.50;;;25.72;52.66
27623;BME280;15041;45.334;5.622;2022-07-22T07:21:14;99299.91;;;25.90;51.73
27623;BME280;15041;45.334;5.622;2022-07-22T07:23:41;99304.56;;;25.86;52.80
27623;BME280;15041;45.334;5.622;2022-07-22T07:26:09;99297.34;;;25.81;54.29
27623;BME280;15041;45.334;5.622;2022-07-22T07:28:36;99294.50;;;25.93;53.40
27623;BME280;15041;45.334;5.622;2022-07-22T07:31:11;99289.75;;;25.94;54.76
27623;BME280;15041;45.334;5.622;2022-07-22T07:33:39;99297.50;;;25.88;54.07
27623;BME280;15041;45.334;5.622;2022-07-22T07:36:07;99299.91;;;26.05;52.54
27623;BME280;15041;45.334;5.622;2022-07-22T07:38:42;99305.53;;;26.28;52.40
27623;BME280;15041;45.334;5.622;2022-07-22T07:41:14;99288.31;;;26.34;51.32
27623;BME280;15041;45.334;5.622;2022-07-22T07:43:41;99293.56;;;26.39;51.36
27623;BME280;15041;45.334;5.622;2022-07-22T07:46:10;99282.50;;;26.58;50.20
27623;BME280;15041;45.334;5.622;2022-07-22T07:48:37;99288.41;;;26.76;50.50
27623;BME280;15041;45.334;5.622;2022-07-22T07:51:05;99288.28;;;26.69;51.51
27623;BME280;15041;45.334;5.622;2022-07-22T07:53:33;99272.47;;;26.69;51.45
27623;BME280;15041;45.334;5.622;2022-07-22T07:56:00;99283.41;;;26.81;49.28
27623;BME280;15041;45.334;5.622;2022-07-22T07:58:28;99281.56;;;26.89;49.49
27623;BME280;15041;45.334;5.622;2022-07-22T08:00:55;99276.22;;;26.99;48.23
27623;BME280;15041;45.334;5.622;2022-07-22T08:03:23;99283.03;;;27.05;47.33
27623;BME280;15041;45.334;5.622;2022-07-22T08:05:51;99289.16;;;27.14;46.87
27623;BME280;15041;45.334;5.622;2022-07-22T08:08:23;99286.53;;;27.21;47.68
27623;BME280;15041;45.334;5.622;2022-07-22T08:10:52;99294.28;;;27.12;48.71
27623;BME280;15041;45.334;5.622;2022-07-22T08:13:31;99297.84;;;27.13;49.90
27623;BME280;15041;45.334;5.622;2022-07-22T08:16:24;99304.06;;;27.06;48.86
27623;BME280;15041;45.334;5.622;2022-07-22T08:18:53;99297.00;;;26.90;49.33
27623;BME280;15041;45.334;5.622;2022-07-22T08:21:20;99295.09;;;26.94;49.23
27623;BME280;15041;45.334;5.622;2022-07-22T08:23:59;99301.91;;;27.19;49.40
27623;BME280;15041;45.334;5.622;2022-07-22T08:26:27;99294.25;;;27.31;48.94
27623;BME280;15041;45.334;5.622;2022-07-22T08:28:54;99291.59;;;27.38;48.67
27623;BME280;15041;45.334;5.622;2022-07-22T08:31:21;99289.31;;;27.21;48.94
27623;BME280;15041;45.334;5.622;2022-07-22T08:33:49;99292.28;;;27.32;48.73
27623;BME280;15041;45.334;5.622;2022-07-22T08:36:18;99297.31;;;27.26;49.15
27623;BME280;15041;45.334;5.622;2022-07-22T08:38:45;99292.34;;;27.35;49.64
27623;BME280;15041;45.334;5.622;2022-07-22T08:41:13;99293.28;;;27.43;49.73
27623;BME280;15041;45.334;5.622;2022-07-22T08:43:41;99288.31;;;27.55;49.74
27623;BME280;15041;45.334;5.622;2022-07-22T08:46:10;99283.50;;;27.52;49.78
27623;BME280;15041;45.334;5.622;2022-07-22T08:48:58;99279.81;;;27.67;49.16
27623;BME280;15041;45.334;5.622;2022-07-22T08:51:44;99278.81;;;27.56;48.92
27623;BME280;15041;45.334;5.622;2022-07-22T08:54:20;99263.91;;;27.64;48.87
27623;BME280;15041;45.334;5.622;2022-07-22T08:56:48;99269.03;;;27.62;48.67
27623;BME280;15041;45.334;5.622;2022-07-22T08:59:15;99272.84;;;27.77;47.70
27623;BME280;15041;45.334;5.622;2022-07-22T09:02:04;99267.63;;;27.49;47.94
27623;BME280;15041;45.334;5.622;2022-07-22T09:04:50;99257.09;;;27.58;47.87
27623;BME280;15041;45.334;5.622;2022-07-22T09:07:25;99256.34;;;27.61;47.17
27623;BME280;15041;45.334;5.622;2022-07-22T09:09:54;99253.16;;;27.85;46.89
27623;BME280;15041;45.334;5.622;2022-07-22T09:12:58;99257.44;;;28.05;46.60
27623;BME280;15041;45.334;5.622;2022-07-22T09:15:48;99264.69;;;28.13;46.27
27623;BME280;15041;45.334;5.622;2022-07-22T09:18:45;99259.63;;;28.19;45.72
27623;BME280;15041;45.334;5.622;2022-07-22T09:21:31;99255.34;;;28.28;46.04
27623;BME280;15041;45.334;5.622;2022-07-22T09:24:27;99247.38;;;28.23;45.83
27623;BME280;15041;45.334;5.622;2022-07-22T09:27:03;99241.97;;;28.37;45.86
27623;BME280;15041;45.334;5.622;2022-07-22T09:29:49;99254.44;;;28.47;45.59
27623;BME280;15041;45.334;5.622;2022-07-22T09:32:18;99255.66;;;28.49;45.79
27623;BME280;15041;45.334;5.622;2022-07-22T09:35:03;99248.88;;;28.47;45.62
27623;BME280;15041;45.334;5.622;2022-07-22T09:37:51;99251.00;;;28.57;45.11
27623;BME280;15041;45.334;5.622;2022-07-22T09:40:22;99245.63;;;28.74;45.45
27623;BME280;15041;45.334;5.622;2022-07-22T09:42:52;99250.44;;;28.77;44.88
27623;BME280;15041;45.334;5.622;2022-07-22T09:45:22;99237.41;;;28.82;44.71
27623;BME280;15041;45.334;5.622;2022-07-22T09:47:50;99242.25;;;28.92;44.50
27623;BME280;15041;45.334;5.622;2022-07-22T09:50:44;99234.88;;;29.03;44.30
27623;BME280;15041;45.334;5.622;2022-07-22T09:53:19;99237.28;;;29.08;44.03
27623;BME280;15041;45.334;5.622;2022-07-22T09:56:23;99228.59;;;29.13;44.48
27623;BME280;15041;45.334;5.622;2022-07-22T09:58:51;99238.19;;;29.19;44.64
27623;BME280;15041;45.334;5.622;2022-07-22T10:01:24;99227.97;;;29.30;43.60
27623;BME280;15041;45.334;5.622;2022-07-22T10:03:53;99228.44;;;29.39;43.58
27623;BME280;15041;45.334;5.622;2022-07-22T10:06:21;99224.41;;;29.29;43.27
27623;BME280;15041;45.334;5.622;2022-07-22T10:08:50;99222.41;;;29.30;43.29
27623;BME280;15041;45.334;5.622;2022-07-22T10:11:18;99219.69;;;29.37;42.74
27623;BME280;15041;45.334;5.622;2022-07-22T10:13:47;99218.56;;;29.45;42.40
27623;BME280;15041;45.334;5.622;2022-07-22T10:16:15;99209.09;;;29.53;43.19
27623;BME280;15041;45.334;5.622;2022-07-22T10:18:44;99213.94;;;29.63;43.05
27623;BME280;15041;45.334;5.622;2022-07-22T10:21:13;99206.81;;;29.69;42.77
27623;BME280;15041;45.334;5.622;2022-07-22T10:24:07;99204.88;;;29.73;41.15
27623;BME280;15041;45.334;5.622;2022-07-22T10:26:55;99201.31;;;29.72;41.47
27623;BME280;15041;45.334;5.622;2022-07-22T10:29:29;99193.84;;;29.87;40.34
27623;BME280;15041;45.334;5.622;2022-07-22T10:32:24;99187.13;;;29.95;40.46
27623;BME280;15041;45.334;5.622;2022-07-22T10:35:20;99184.06;;;30.14;40.09
27623;BME280;15041;45.334;5.622;2022-07-22T10:37:49;99187.31;;;30.26;39.08
27623;BME280;15041;45.334;5.622;2022-07-22T10:40:19;99187.38;;;30.47;37.55
27623;BME280;15041;45.334;5.622;2022-07-22T10:43:11;99183.00;;;30.50;36.63
27623;BME280;15041;45.334;5.622;2022-07-22T10:45:42;99179.41;;;30.46;36.68
27623;BME280;15041;45.334;5.622;2022-07-22T10:48:12;99173.06;;;30.56;35.89
27623;BME280;15041;45.334;5.622;2022-07-22T10:50:45;99183.44;;;30.59;37.01
27623;BME280;15041;45.334;5.622;2022-07-22T10:53:14;99184.19;;;30.49;36.62
27623;BME280;15041;45.334;5.622;2022-07-22T10:58:53;99172.34;;;30.69;35.09
27623;BME280;15041;45.334;5.622;2022-07-22T11:01:25;99163.97;;;30.73;35.68
27623;BME280;15041;45.334;5.622;2022-07-22T11:03:53;99157.22;;;30.81;35.57
27623;BME280;15041;45.334;5.622;2022-07-22T11:06:26;99169.97;;;30.89;35.39
27623;BME280;15041;45.334;5.622;2022-07-22T11:08:55;99162.44;;;31.03;34.13
27623;BME280;15041;45.334;5.622;2022-07-22T11:11:39;99157.22;;;30.95;34.48
27623;BME280;15041;45.334;5.622;2022-07-22T11:14:12;99160.03;;;31.16;35.93
27623;BME280;15041;45.334;5.622;2022-07-22T11:16:41;99158.06;;;31.27;35.91
27623;BME280;15041;45.334;5.622;2022-07-22T11:19:08;99150.88;;;31.12;36.95
27623;BME280;15041;45.334;5.622;2022-07-22T11:21:36;99155.66;;;31.22;36.62
27623;BME280;15041;45.334;5.622;2022-07-22T11:24:05;99156.44;;;31.19;36.81
27623;BME280;15041;45.334;5.622;2022-07-22T11:26:40;99148.47;;;31.42;37.07
27623;BME280;15041;45.334;5.622;2022-07-22T11:29:08;99145.31;;;31.40;37.38
27623;BME280;15041;45.334;5.622;2022-07-22T11:31:35;99145.31;;;31.40;36.96
27623;BME280;15041;45.334;5.622;2022-07-22T11:34:08;99131.31;;;31.54;36.49
27623;BME280;15041;45.334;5.622;2022-07-22T11:36:38;99138.91;;;31.64;36.64
27623;BME280;15041;45.334;5.622;2022-07-22T11:39:07;99131.72;;;31.77;36.51
27623;BME280;15041;45.334;5.622;2022-07-22T11:41:35;99126.47;;;31.72;36.04
27623;BME280;15041;45.334;5.622;2022-07-22T11:44:03;99130.91;;;31.66;36.64
27623;BME280;15041;45.334;5.622;2022-07-22T11:46:35;99124.50;;;31.76;36.01
27623;BME280;15041;45.334;5.622;2022-07-22T11:49:03;99130.88;;;31.80;35.60
27623;BME280;15041;45.334;5.622;2022-07-22T11:51:33;99126.03;;;31.94;35.42
27623;BME280;15041;45.334;5.622;2022-07-22T11:54:00;99115.69;;;31.95;35.38
27623;BME280;15041;45.334;5.622;2022-07-22T11:56:28;99121.94;;;32.23;34.53
27623;BME280;15041;45.334;5.622;2022-07-22T11:58:55;99119.53;;;32.29;34.70
27623;BME280;15041;45.334;5.622;2022-07-22T12:01:24;99117.13;;;32.31;34.93
27623;BME280;15041;45.334;5.622;2022-07-22T12:03:54;99113.56;;;32.30;33.99
27623;BME280;15041;45.334;5.622;2022-07-22T12:06:23;99111.53;;;32.31;34.69
27623;BME280;15041;45.334;5.622;2022-07-22T12:08:54;99111.06;;;32.43;34.33
27623;BME280;15041;45.334;5.622;2022-07-22T12:11:24;99110.63;;;32.48;33.42
27623;BME280;15041;45.334;5.622;2022-07-22T12:13:52;99109.72;;;32.65;32.94
27623;BME280;15041;45.334;5.622;2022-07-22T12:16:22;99107.38;;;32.60;33.35
27623;BME280;15041;45.334;5.622;2022-07-22T12:18:52;99095.34;;;32.66;33.71
27623;BME280;15041;45.334;5.622;2022-07-22T12:21:20;99098.84;;;32.81;33.32
27623;BME280;15041;45.334;5.622;2022-07-22T12:23:55;99096.06;;;32.81;33.29
27623;BME280;15041;45.334;5.622;2022-07-22T12:26:40;99105.16;;;32.92;32.24
27623;BME280;15041;45.334;5.622;2022-07-22T12:29:18;99100.75;;;32.94;32.50
27623;BME280;15041;45.334;5.622;2022-07-22T12:31:46;99094.25;;;33.08;31.92
27623;BME280;15041;45.334;5.622;2022-07-22T12:34:14;99095.75;;;33.16;32.47
27623;BME280;15041;45.334;5.622;2022-07-22T12:36:45;99095.72;;;33.19;32.57
27623;BME280;15041;45.334;5.622;2022-07-22T12:39:16;99086.06;;;33.24;31.97
27623;BME280;15041;45.334;5.622;2022-07-22T12:41:47;99079.28;;;33.25;32.09
27623;BME280;15041;45.334;5.622;2022-07-22T12:44:19;99082.16;;;33.18;32.05
27623;BME280;15041;45.334;5.622;2022-07-22T12:46:48;99081.81;;;33.53;31.09
27623;BME280;15041;45.334;5.622;2022-07-22T12:49:18;99070.31;;;33.44;31.08
27623;BME280;15041;45.334;5.622;2022-07-22T12:52:08;99076.31;;;33.46;31.16
27623;BME280;15041;45.334;5.622;2022-07-22T12:54:38;99080.22;;;33.52;31.56
27623;BME280;15041;45.334;5.622;2022-07-22T12:57:07;99078.59;;;33.55;31.91
27623;BME280;15041;45.334;5.622;2022-07-22T12:59:35;99072.13;;;33.61;30.92
27623;BME280;15041;45.334;5.622;2022-07-22T13:02:03;99071.38;;;33.57;31.11
27623;BME280;15041;45.334;5.622;2022-07-22T13:04:30;99056.97;;;33.59;30.67
27623;BME280;15041;45.334;5.622;2022-07-22T13:06:57;99056.06;;;33.65;30.84
27623;BME280;15041;45.334;5.622;2022-07-22T13:09:25;99057.06;;;33.85;31.22
27623;BME280;15041;45.334;5.622;2022-07-22T13:11:53;99046.31;;;33.80;30.14
27623;BME280;15041;45.334;5.622;2022-07-22T13:14:20;99055.91;;;33.79;30.36
27623;BME280;15041;45.334;5.622;2022-07-22T13:16:48;99047.50;;;33.79;29.38
27623;BME280;15041;45.334;5.622;2022-07-22T13:19:15;99047.91;;;33.81;30.48
27623;BME280;15041;45.334;5.622;2022-07-22T13:21:42;99049.50;;;33.82;30.54